Time;durP1;ratioP1;P1;durP2;ratioP2;P2;SDS_P1;SDS_P2;PMS_P1;PMS_P2;Temp;Humidity;BMP_temperature;BMP_pressure;BME280_temperature;BME280_humidity;BME280_pressure;Samples;Min_cycle;Max_cycle;Signal;HPM_P1;HPM_P2
2022/03/08 00:02:16;;;;;;;56.83;30.35;;;;;;;;;;5044118;28;20029;-72
2022/03/08 00:04:41;;;;;;;78.18;37.95;;;;;;;;;;5041439;28;21011;-74
2022/03/08 00:07:07;;;;;;;82.10;41.58;;;;;;;;;;5032590;28;20036;-73
2022/03/08 00:09:32;;;;;;;70.10;37.15;;;;;;;;;;5040852;28;20085;-73
2022/03/08 00:11:58;;;;;;;74.32;37.03;;;;;;;;;;5040556;28;20028;-72
2022/03/08 00:14:23;;;;;;;79.32;41.47;;;;;;;;;;5036629;28;20067;-75
2022/03/08 00:16:49;;;;;;;80.88;39.90;;;;;;;;;;5028534;28;20029;-74
2022/03/08 00:19:14;;;;;;;92.53;46.83;;;;;;;;;;5028855;28;20040;-74
2022/03/08 00:21:40;;;;;;;69.50;36.15;;;;;;;;;;5037272;28;20044;-71
2022/03/08 00:24:06;;;;;;;66.03;35.47;;;;;;;;;;5016759;28;20040;-71
2022/03/08 00:26:31;;;;;;;59.58;32.20;;;;;;;;;;5040947;28;20166;-71
2022/03/08 00:28:57;;;;;;;59.42;32.38;;;;;;;;;;5039039;28;20033;-74
2022/03/08 00:31:22;;;;;;;63.55;32.38;;;;;;;;;;5036904;28;20329;-73
2022/03/08 00:33:47;;;;;;;81.43;42.25;;;;;;;;;;5036127;28;20148;-74
2022/03/08 00:36:13;;;;;;;73.00;38.42;;;;;;;;;;5028027;28;20040;-73
2022/03/08 00:38:38;;;;;;;103.53;53.15;;;;;;;;;;5033635;28;20352;-75
2022/03/08 00:41:04;;;;;;;77.20;41.20;;;;;;;;;;5031257;28;20174;-74
2022/03/08 00:43:29;;;;;;;76.47;42.08;;;;;;;;;;5041464;28;20453;-76
2022/03/08 00:45:55;;;;;;;97.85;50.78;;;;;;;;;;5043038;28;20036;-72
2022/03/08 00:48:20;;;;;;;91.47;44.85;;;;;;;;;;5040848;28;20511;-75
2022/03/08 00:50:45;;;;;;;71.45;38.25;;;;;;;;;;5033930;28;20111;-73
2022/03/08 00:53:11;;;;;;;61.60;35.22;;;;;;;;;;5036697;28;20448;-73
2022/03/08 00:55:36;;;;;;;70.95;36.65;;;;;;;;;;5041366;28;20029;-72
2022/03/08 00:58:03;;;;;;;57.78;31.42;;;;;;;;;;5031545;28;20028;-72
2022/03/08 01:00:30;;;;;;;62.17;34.08;;;;;;;;;;5032251;28;20231;-74
2022/03/08 01:02:55;;;;;;;44.65;27.15;;;;;;;;;;5037635;28;20040;-73
2022/03/08 01:05:20;;;;;;;46.00;30.15;;;;;;;;;;5041386;28;20025;-73
2022/03/08 01:07:46;;;;;;;46.58;29.75;;;;;;;;;;5038842;28;20029;-73
2022/03/08 01:10:15;;;;;;;42.33;25.25;;;;;;;;;;5040438;28;20029;-75
2022/03/08 01:12:40;;;;;;;54.38;31.20;;;;;;;;;;5028196;28;20041;-74
2022/03/08 01:15:06;;;;;;;47.60;27.98;;;;;;;;;;5033343;28;20047;-73
2022/03/08 01:17:31;;;;;;;55.47;30.40;;;;;;;;;;5039787;28;20070;-73
2022/03/08 01:19:57;;;;;;;53.90;27.50;;;;;;;;;;5038708;28;20041;-73
2022/03/08 01:22:23;;;;;;;50.15;28.55;;;;;;;;;;5033757;28;20029;-73
2022/03/08 01:24:48;;;;;;;40.60;22.60;;;;;;;;;;5040912;28;20044;-73
2022/03/08 01:27:14;;;;;;;48.88;28.85;;;;;;;;;;5018278;28;20108;-74
2022/03/08 01:29:39;;;;;;;55.75;30.60;;;;;;;;;;5029219;28;20043;-72
2022/03/08 01:32:05;;;;;;;43.70;25.42;;;;;;;;;;5032439;28;20112;-72
2022/03/08 01:34:30;;;;;;;46.65;26.50;;;;;;;;;;5036905;28;20835;-71
2022/03/08 01:36:55;;;;;;;42.85;22.95;;;;;;;;;;5039094;28;20029;-71
2022/03/08 01:39:21;;;;;;;39.20;22.75;;;;;;;;;;5041784;28;20129;-71
2022/03/08 01:41:47;;;;;;;47.03;25.98;;;;;;;;;;5040279;28;20033;-72
2022/03/08 01:44:12;;;;;;;41.88;23.83;;;;;;;;;;5034947;28;20132;-74
2022/03/08 01:46:37;;;;;;;46.97;24.55;;;;;;;;;;5033444;28;20029;-72
2022/03/08 01:49:04;;;;;;;45.35;23.83;;;;;;;;;;5022760;28;20033;-72
2022/03/08 01:51:29;;;;;;;38.40;23.65;;;;;;;;;;5041307;28;20069;-71
2022/03/08 01:53:55;;;;;;;44.65;23.73;;;;;;;;;;5039555;28;20036;-72
2022/03/08 01:56:20;;;;;;;41.22;23.92;;;;;;;;;;5040197;28;20442;-71
2022/03/08 01:58:46;;;;;;;50.58;25.67;;;;;;;;;;5032809;28;20025;-71
2022/03/08 02:01:11;;;;;;;36.10;19.52;;;;;;;;;;5027801;28;20044;-70
2022/03/08 02:03:36;;;;;;;36.08;23.30;;;;;;;;;;5038751;28;20031;-73
2022/03/08 02:06:02;;;;;;;37.45;22.35;;;;;;;;;;5038496;28;20036;-72
2022/03/08 02:08:27;;;;;;;41.97;22.92;;;;;;;;;;5039017;28;20586;-71
2022/03/08 02:10:53;;;;;;;39.60;23.20;;;;;;;;;;5039867;28;20025;-71
2022/03/08 02:13:18;;;;;;;40.58;22.50;;;;;;;;;;5033558;28;21145;-73
2022/03/08 02:15:47;;;;;;;43.42;23.83;;;;;;;;;;5025250;28;20032;-73
2022/03/08 02:18:12;;;;;;;35.60;21.38;;;;;;;;;;5026602;28;20107;-73
2022/03/08 02:20:38;;;;;;;34.28;22.35;;;;;;;;;;5023294;28;20468;-72
2022/03/08 02:23:04;;;;;;;37.50;21.65;;;;;;;;;;5033621;28;20194;-72
2022/03/08 02:25:30;;;;;;;35.22;22.08;;;;;;;;;;5039192;28;20033;-72
2022/03/08 02:27:55;;;;;;;40.13;24.08;;;;;;;;;;5040512;28;20420;-74
2022/03/08 02:30:21;;;;;;;42.75;25.25;;;;;;;;;;5038301;28;20090;-72
2022/03/08 02:32:47;;;;;;;35.67;20.50;;;;;;;;;;5038263;28;20079;-71
2022/03/08 02:35:14;;;;;;;36.85;21.33;;;;;;;;;;5034698;28;20035;-71
2022/03/08 02:37:41;;;;;;;35.35;22.40;;;;;;;;;;5032004;28;20037;-71
2022/03/08 02:40:08;;;;;;;36.92;21.42;;;;;;;;;;5039963;28;20036;-71
2022/03/08 02:42:34;;;;;;;40.45;24.00;;;;;;;;;;5037796;28;20060;-72
2022/03/08 02:44:59;;;;;;;41.08;24.20;;;;;;;;;;5031051;28;20039;-74
2022/03/08 02:47:24;;;;;;;43.70;26.35;;;;;;;;;;5039531;28;20112;-72
2022/03/08 02:49:50;;;;;;;46.13;26.92;;;;;;;;;;5039115;28;20040;-72
2022/03/08 02:52:15;;;;;;;45.95;26.33;;;;;;;;;;5038975;28;20021;-71
2022/03/08 02:54:40;;;;;;;43.78;27.25;;;;;;;;;;5037537;28;20044;-72
2022/03/08 02:57:06;;;;;;;42.72;27.45;;;;;;;;;;5039654;28;20100;-71
2022/03/08 02:59:31;;;;;;;37.75;23.67;;;;;;;;;;5039666;28;20053;-72
2022/03/08 03:01:56;;;;;;;45.70;27.25;;;;;;;;;;5022405;28;20040;-72
2022/03/08 03:04:22;;;;;;;41.97;24.92;;;;;;;;;;5037938;28;20029;-73
2022/03/08 03:06:47;;;;;;;39.38;25.52;;;;;;;;;;5038278;28;20017;-73
2022/03/08 03:09:12;;;;;;;39.92;24.20;;;;;;;;;;5038818;28;20440;-72
2022/03/08 03:11:38;;;;;;;37.13;21.90;;;;;;;;;;5037028;28;20313;-71
2022/03/08 03:14:03;;;;;;;34.55;21.00;;;;;;;;;;5036462;28;20045;-72
2022/03/08 03:16:29;;;;;;;36.40;22.15;;;;;;;;;;5038675;28;20048;-72
2022/03/08 03:18:54;;;;;;;35.40;20.55;;;;;;;;;;5036314;28;20484;-72
2022/03/08 03:21:19;;;;;;;33.65;20.05;;;;;;;;;;5036143;28;20033;-72
2022/03/08 03:23:45;;;;;;;35.05;20.58;;;;;;;;;;5040419;28;20028;-71
2022/03/08 03:26:10;;;;;;;36.38;22.73;;;;;;;;;;5039385;28;20476;-73
2022/03/08 03:28:35;;;;;;;38.20;22.90;;;;;;;;;;5036215;28;20021;-73
2022/03/08 03:31:01;;;;;;;33.80;19.42;;;;;;;;;;5035108;28;20068;-74
2022/03/08 03:33:26;;;;;;;37.40;21.48;;;;;;;;;;5030888;28;20044;-72
2022/03/08 03:35:51;;;;;;;38.80;22.45;;;;;;;;;;5043179;28;20136;-73
2022/03/08 03:38:17;;;;;;;39.08;24.50;;;;;;;;;;5042776;28;20119;-71
2022/03/08 03:40:42;;;;;;;37.38;21.73;;;;;;;;;;5036327;28;20021;-72
2022/03/08 03:43:08;;;;;;;39.75;22.60;;;;;;;;;;5031504;28;20024;-74
2022/03/08 03:45:33;;;;;;;40.90;22.70;;;;;;;;;;5043020;28;20043;-73
2022/03/08 03:47:59;;;;;;;41.72;24.45;;;;;;;;;;5041023;28;20029;-73
2022/03/08 03:50:24;;;;;;;45.33;25.98;;;;;;;;;;5040729;28;20043;-74
2022/03/08 03:52:49;;;;;;;41.92;23.73;;;;;;;;;;5043509;28;20119;-72
2022/03/08 03:55:15;;;;;;;34.72;20.98;;;;;;;;;;5042326;28;20029;-72
2022/03/08 03:57:41;;;;;;;35.58;21.50;;;;;;;;;;5042289;28;20750;-73
2022/03/08 04:00:07;;;;;;;35.58;21.23;;;;;;;;;;5039633;28;20029;-73
2022/03/08 04:02:32;;;;;;;40.10;23.08;;;;;;;;;;5029563;28;20021;-72
2022/03/08 04:04:58;;;;;;;39.67;22.00;;;;;;;;;;5038340;28;20036;-72
2022/03/08 04:07:23;;;;;;;39.58;22.75;;;;;;;;;;5033820;28;20074;-73
2022/03/08 04:09:49;;;;;;;40.53;23.80;;;;;;;;;;5041968;28;20025;-72
2022/03/08 04:12:15;;;;;;;45.15;25.63;;;;;;;;;;5042086;28;20024;-72
2022/03/08 04:14:40;;;;;;;42.00;25.98;;;;;;;;;;5040297;28;20032;-72
2022/03/08 04:17:06;;;;;;;41.60;23.73;;;;;;;;;;5041582;28;20025;-72
2022/03/08 04:19:31;;;;;;;41.05;23.48;;;;;;;;;;5042488;28;20037;-71
2022/03/08 04:21:57;;;;;;;46.88;25.25;;;;;;;;;;5032243;28;20099;-72
2022/03/08 04:24:22;;;;;;;46.55;27.08;;;;;;;;;;5037906;28;20037;-73
2022/03/08 04:26:47;;;;;;;49.90;26.58;;;;;;;;;;5041049;28;20025;-72
2022/03/08 04:29:13;;;;;;;41.92;23.33;;;;;;;;;;5033516;28;20040;-73
2022/03/08 04:31:38;;;;;;;50.47;27.48;;;;;;;;;;5028942;28;20087;-72
2022/03/08 04:34:04;;;;;;;50.58;29.80;;;;;;;;;;5038442;28;20087;-72
2022/03/08 04:36:29;;;;;;;45.42;26.55;;;;;;;;;;5035062;28;20610;-73
2022/03/08 04:38:54;;;;;;;46.78;25.40;;;;;;;;;;5041139;28;20453;-72
2022/03/08 04:41:20;;;;;;;65.80;33.63;;;;;;;;;;5039608;28;20025;-72
2022/03/08 04:43:46;;;;;;;62.00;32.58;;;;;;;;;;5041897;28;20444;-72
2022/03/08 04:46:11;;;;;;;50.47;27.23;;;;;;;;;;5037469;28;20023;-71
2022/03/08 04:48:37;;;;;;;52.38;28.77;;;;;;;;;;5028494;28;20033;-71
2022/03/08 04:51:02;;;;;;;50.00;26.70;;;;;;;;;;5028443;28;20116;-73
2022/03/08 04:53:27;;;;;;;44.42;24.50;;;;;;;;;;5028305;28;21206;-72
2022/03/08 04:55:53;;;;;;;53.92;29.08;;;;;;;;;;5028008;28;20028;-72
2022/03/08 04:58:18;;;;;;;51.45;28.25;;;;;;;;;;5027430;28;20148;-70
2022/03/08 05:00:44;;;;;;;50.03;28.75;;;;;;;;;;5039777;28;20035;-71
2022/03/08 05:03:09;;;;;;;47.67;26.40;;;;;;;;;;5041087;28;20345;-71
2022/03/08 05:05:34;;;;;;;47.17;27.75;;;;;;;;;;5034355;28;20025;-72
2022/03/08 05:08:00;;;;;;;57.53;30.42;;;;;;;;;;5039454;28;20086;-71
2022/03/08 05:10:26;;;;;;;49.05;25.45;;;;;;;;;;5037858;28;20088;-71
2022/03/08 05:12:52;;;;;;;47.22;28.10;;;;;;;;;;5033118;28;20049;-73
2022/03/08 05:15:17;;;;;;;52.65;28.98;;;;;;;;;;5039301;28;20021;-73
2022/03/08 05:17:43;;;;;;;53.72;29.77;;;;;;;;;;5030523;28;20032;-72
2022/03/08 05:20:08;;;;;;;76.43;42.38;;;;;;;;;;5027973;28;20585;-73
2022/03/08 05:22:34;;;;;;;52.35;26.35;;;;;;;;;;5039162;28;20020;-71
2022/03/08 05:24:59;;;;;;;58.17;31.38;;;;;;;;;;5032387;28;20367;-72
2022/03/08 05:27:24;;;;;;;61.55;32.47;;;;;;;;;;5039138;28;20086;-74
2022/03/08 05:29:50;;;;;;;51.30;30.23;;;;;;;;;;5035209;28;20032;-72
2022/03/08 05:32:16;;;;;;;57.22;31.42;;;;;;;;;;5032977;28;20436;-71
2022/03/08 05:34:41;;;;;;;55.78;31.98;;;;;;;;;;5030311;28;20020;-71
2022/03/08 05:37:06;;;;;;;66.65;34.55;;;;;;;;;;5039003;28;20036;-70
2022/03/08 05:39:34;;;;;;;52.97;31.90;;;;;;;;;;5037793;28;20118;-71
2022/03/08 05:42:03;;;;;;;42.67;24.20;;;;;;;;;;5016898;23;20061;-68
2022/03/08 07:09:52;;;;;;;77.57;40.55;;;;;;;;;;5542307;23;20484;-70
2022/03/08 07:12:18;;;;;;;61.35;35.00;;;;;;;;;;4954100;28;20042;-71
2022/03/08 07:14:43;;;;;;;55.38;32.95;;;;;;;;;;4966092;28;20509;-68
2022/03/08 07:17:08;;;;;;;51.30;30.33;;;;;;;;;;4964195;28;20059;-69
2022/03/08 07:19:34;;;;;;;56.53;31.92;;;;;;;;;;4968084;28;20038;-68
2022/03/08 07:21:59;;;;;;;59.17;32.40;;;;;;;;;;4969321;28;20441;-70
2022/03/08 07:24:24;;;;;;;49.50;27.67;;;;;;;;;;4967793;28;20084;-69
2022/03/08 07:26:50;;;;;;;43.63;26.67;;;;;;;;;;4968527;28;20390;-67
2022/03/08 07:29:15;;;;;;;60.92;33.60;;;;;;;;;;4970019;28;20418;-68
2022/03/08 07:31:40;;;;;;;67.43;32.15;;;;;;;;;;4966860;28;20030;-68
2022/03/08 07:34:06;;;;;;;52.53;28.33;;;;;;;;;;4968368;28;20035;-68
2022/03/08 07:36:32;;;;;;;51.58;28.95;;;;;;;;;;4966221;28;20469;-69
2022/03/08 07:38:58;;;;;;;62.28;35.67;;;;;;;;;;4966792;28;20027;-68
2022/03/08 07:41:23;;;;;;;41.05;26.00;;;;;;;;;;4968363;28;20031;-69
2022/03/08 07:43:48;;;;;;;47.08;25.88;;;;;;;;;;4966753;28;20015;-69
2022/03/08 07:46:15;;;;;;;53.20;27.90;;;;;;;;;;4965536;28;20432;-67
2022/03/08 07:48:40;;;;;;;58.00;31.50;;;;;;;;;;4968362;28;20026;-68
2022/03/08 07:51:05;;;;;;;51.72;28.58;;;;;;;;;;4967112;28;20364;-70
2022/03/08 07:53:31;;;;;;;43.55;26.50;;;;;;;;;;4968154;28;20033;-68
2022/03/08 07:55:56;;;;;;;57.22;34.47;;;;;;;;;;4969269;28;20037;-68
2022/03/08 07:58:22;;;;;;;45.28;28.10;;;;;;;;;;4967375;28;20113;-69
2022/03/08 08:00:47;;;;;;;48.53;28.83;;;;;;;;;;4967009;28;20034;-69
2022/03/08 08:03:12;;;;;;;55.40;33.88;;;;;;;;;;4966161;28;20146;-69
2022/03/08 08:05:38;;;;;;;49.38;29.38;;;;;;;;;;4966834;28;20109;-69
2022/03/08 08:08:04;;;;;;;45.42;27.38;;;;;;;;;;4967632;28;20034;-68
2022/03/08 08:10:30;;;;;;;50.95;30.77;;;;;;;;;;4968107;28;20537;-69
2022/03/08 08:12:55;;;;;;;55.70;34.33;;;;;;;;;;4966653;28;20141;-68
2022/03/08 08:15:21;;;;;;;44.67;26.90;;;;;;;;;;4967133;28;20027;-68
2022/03/08 08:17:46;;;;;;;44.03;28.73;;;;;;;;;;4969458;28;20022;-69
2022/03/08 08:20:11;;;;;;;40.17;23.67;;;;;;;;;;4970323;28;20042;-70
2022/03/08 08:22:37;;;;;;;48.33;28.27;;;;;;;;;;4972699;28;20038;-68
2022/03/08 08:25:03;;;;;;;43.67;25.25;;;;;;;;;;4972581;28;20026;-69
2022/03/08 08:27:28;;;;;;;50.78;27.42;;;;;;;;;;4970910;28;20031;-68
2022/03/08 08:29:54;;;;;;;52.10;31.15;;;;;;;;;;4969999;28;20018;-69
2022/03/08 08:32:19;;;;;;;47.38;28.65;;;;;;;;;;4971040;28;20049;-69
2022/03/08 08:34:44;;;;;;;44.55;23.73;;;;;;;;;;4969623;28;20093;-69
2022/03/08 08:37:11;;;;;;;45.83;27.63;;;;;;;;;;4971552;28;20361;-69
2022/03/08 08:39:36;;;;;;;39.20;23.88;;;;;;;;;;4970261;28;20033;-69
2022/03/08 08:42:01;;;;;;;36.53;22.15;;;;;;;;;;4971216;28;20042;-69
2022/03/08 08:44:27;;;;;;;39.13;22.90;;;;;;;;;;4971238;28;20018;-67
2022/03/08 08:46:52;;;;;;;33.80;21.58;;;;;;;;;;4951958;28;20034;-68
2022/03/08 08:49:18;;;;;;;38.22;22.25;;;;;;;;;;4968626;28;20122;-69
2022/03/08 08:51:43;;;;;;;42.88;24.67;;;;;;;;;;4969223;28;20463;-68
2022/03/08 08:54:09;;;;;;;47.13;32.08;;;;;;;;;;4972874;28;20019;-69
2022/03/08 08:56:35;;;;;;;36.75;24.02;;;;;;;;;;4971180;28;20461;-69
2022/03/08 08:59:02;;;;;;;34.72;23.70;;;;;;;;;;4968321;28;20014;-68
2022/03/08 09:01:28;;;;;;;44.17;25.67;;;;;;;;;;4972096;28;20096;-68
2022/03/08 09:03:53;;;;;;;45.38;27.52;;;;;;;;;;4969569;28;20026;-68
2022/03/08 09:06:18;;;;;;;56.08;29.65;;;;;;;;;;4971643;28;20045;-70
2022/03/08 09:08:44;;;;;;;52.65;30.10;;;;;;;;;;4968248;28;20069;-69
2022/03/08 09:11:11;;;;;;;77.88;30.73;;;;;;;;;;4970101;28;20050;-69
2022/03/08 09:13:37;;;;;;;58.33;27.75;;;;;;;;;;4970429;28;20330;-69
2022/03/08 09:16:02;;;;;;;66.15;33.88;;;;;;;;;;4968910;28;20091;-69
2022/03/08 09:18:27;;;;;;;59.97;29.48;;;;;;;;;;4969083;28;20081;-68
2022/03/08 09:20:53;;;;;;;54.92;28.92;;;;;;;;;;4969638;28;20096;-69
2022/03/08 09:23:19;;;;;;;49.28;26.17;;;;;;;;;;4970768;28;20092;-68
2022/03/08 09:25:44;;;;;;;45.45;25.52;;;;;;;;;;4971043;28;20053;-69
2022/03/08 09:28:09;;;;;;;60.90;31.10;;;;;;;;;;4968917;28;20437;-69
2022/03/08 09:30:35;;;;;;;49.22;25.58;;;;;;;;;;4968145;28;20462;-69
2022/03/08 09:33:01;;;;;;;45.38;26.23;;;;;;;;;;4967764;28;20023;-68
2022/03/08 09:35:27;;;;;;;41.00;24.48;;;;;;;;;;4969204;28;20523;-69
2022/03/08 09:37:53;;;;;;;44.22;26.45;;;;;;;;;;4971995;28;20080;-70
2022/03/08 09:40:19;;;;;;;43.80;25.98;;;;;;;;;;4958940;28;20042;-68
2022/03/08 09:42:44;;;;;;;42.55;25.48;;;;;;;;;;4968356;28;20342;-67
2022/03/08 09:45:10;;;;;;;40.42;23.98;;;;;;;;;;4968781;28;20018;-68
2022/03/08 09:47:36;;;;;;;33.90;21.10;;;;;;;;;;4968620;28;20405;-69
2022/03/08 09:50:01;;;;;;;40.85;25.73;;;;;;;;;;4968815;28;20023;-68
2022/03/08 09:52:26;;;;;;;61.28;34.08;;;;;;;;;;4969598;28;20093;-69
2022/03/08 09:54:52;;;;;;;42.95;24.58;;;;;;;;;;4967074;28;20029;-68
2022/03/08 09:57:22;;;;;;;56.75;31.17;;;;;;;;;;4968690;28;20023;-68
2022/03/08 09:59:47;;;;;;;37.65;23.90;;;;;;;;;;4969800;28;20123;-70
2022/03/08 10:02:14;;;;;;;64.53;28.83;;;;;;;;;;4968000;28;20042;-68
2022/03/08 10:04:39;;;;;;;53.85;28.80;;;;;;;;;;4970108;28;20416;-68
2022/03/08 10:07:09;;;;;;;47.53;26.75;;;;;;;;;;4968393;28;20023;-71
2022/03/08 10:09:34;;;;;;;44.28;26.58;;;;;;;;;;4969312;28;20031;-68
2022/03/08 10:12:00;;;;;;;53.97;27.88;;;;;;;;;;4969854;28;20030;-69
2022/03/08 10:14:50;;;;;;;63.10;27.00;;;;;;;;;;4969803;28;20027;-68
2022/03/08 10:17:34;;;;;;;47.25;27.02;;;;;;;;;;4969571;28;20038;-71
2022/03/08 10:19:59;;;;;;;61.53;33.13;;;;;;;;;;4970881;28;20094;-69
2022/03/08 10:22:32;;;;;;;68.93;35.70;;;;;;;;;;4968994;28;20101;-69
2022/03/08 10:25:13;;;;;;;45.45;26.25;;;;;;;;;;4966259;28;20085;-69
2022/03/08 10:27:41;;;;;;;48.55;28.20;;;;;;;;;;4970597;28;20022;-69
2022/03/08 10:30:12;;;;;;;49.65;29.65;;;;;;;;;;4968452;28;20038;-69
2022/03/08 10:32:38;;;;;;;50.20;29.67;;;;;;;;;;4969966;28;20345;-69
2022/03/08 10:35:03;;;;;;;39.97;25.25;;;;;;;;;;4970728;28;20035;-68
2022/03/08 10:37:35;;;;;;;43.28;25.45;;;;;;;;;;4969943;28;20042;-69
2022/03/08 10:40:01;;;;;;;42.30;23.60;;;;;;;;;;4966423;28;20042;-69
2022/03/08 10:42:27;;;;;;;39.65;24.67;;;;;;;;;;4968752;28;20354;-68
2022/03/08 10:45:07;;;;;;;39.25;26.08;;;;;;;;;;4967960;28;20449;-68
2022/03/08 10:47:46;;;;;;;44.88;28.15;;;;;;;;;;4968161;28;20046;-69
2022/03/08 10:50:14;;;;;;;44.75;24.40;;;;;;;;;;4970202;28;20035;-69
2022/03/08 10:52:40;;;;;;;43.65;26.58;;;;;;;;;;4968685;28;20034;-69
2022/03/08 10:55:08;;;;;;;44.92;28.42;;;;;;;;;;4967454;28;20080;-69
2022/03/08 10:57:34;;;;;;;48.58;27.80;;;;;;;;;;4967708;28;20125;-68
2022/03/08 11:00:00;;;;;;;45.22;26.80;;;;;;;;;;4967875;28;20134;-70
2022/03/08 11:02:25;;;;;;;34.85;21.58;;;;;;;;;;4969271;28;20035;-68
2022/03/08 11:05:05;;;;;;;55.72;32.03;;;;;;;;;;4967947;28;20038;-68
2022/03/08 11:07:30;;;;;;;;;;;;;;;;;;4967778;28;20035;-69
2022/03/08 11:09:56;;;;;;;42.37;25.03;;;;;;;;;;4966684;28;20229;-68
2022/03/08 11:12:21;;;;;;;52.67;30.17;;;;;;;;;;4970139;28;20023;-69
2022/03/08 11:14:47;;;;;;;53.53;31.98;;;;;;;;;;4966697;28;20457;-68
2022/03/08 11:17:12;;;;;;;41.10;24.23;;;;;;;;;;4967103;28;20019;-69
2022/03/08 11:19:38;;;;;;;48.78;28.65;;;;;;;;;;4968144;28;20022;-69
2022/03/08 11:22:04;;;;;;;41.85;25.20;;;;;;;;;;4968249;28;20030;-69
2022/03/08 11:24:30;;;;;;;40.20;24.42;;;;;;;;;;4966646;28;20037;-68
2022/03/08 11:26:56;;;;;;;48.00;28.55;;;;;;;;;;4968300;28;20085;-69
2022/03/08 11:29:22;;;;;;;49.33;31.17;;;;;;;;;;4966775;28;20066;-70
2022/03/08 11:31:48;;;;;;;39.65;25.27;;;;;;;;;;4968882;28;20092;-68
2022/03/08 11:34:34;;;;;;;34.83;21.83;;;;;;;;;;4965676;28;20358;-69
2022/03/08 11:37:01;;;;;;;43.63;27.63;;;;;;;;;;4953222;28;20031;-69
2022/03/08 11:39:30;;;;;;;46.42;28.17;;;;;;;;;;4968456;28;20050;-68
2022/03/08 11:42:26;;;;;;;38.38;23.98;;;;;;;;;;4968114;28;20027;-68
2022/03/08 11:44:59;;;;;;;36.58;22.77;;;;;;;;;;4946963;28;20054;-71
2022/03/08 11:47:35;;;;;;;38.33;20.35;;;;;;;;;;4967713;28;20063;-69
2022/03/08 11:50:01;;;;;;;37.47;21.65;;;;;;;;;;4967553;28;20041;-70
2022/03/08 11:52:27;;;;;;;38.65;23.52;;;;;;;;;;4968159;28;20026;-70
2022/03/08 11:54:54;;;;;;;42.42;25.52;;;;;;;;;;4969494;28;20023;-69
2022/03/08 11:57:38;;;;;;;50.75;28.13;;;;;;;;;;4974468;28;20038;-69
2022/03/08 12:00:20;;;;;;;51.38;28.45;;;;;;;;;;4970304;28;20129;-70
2022/03/08 12:02:47;;;;;;;50.75;29.63;;;;;;;;;;4970881;28;20034;-69
2022/03/08 12:05:30;;;;;;;45.97;24.52;;;;;;;;;;4972330;28;20027;-69
2022/03/08 12:07:56;;;;;;;38.92;21.83;;;;;;;;;;4969040;28;20022;-68
2022/03/08 12:10:25;;;;;;;54.00;33.40;;;;;;;;;;4968863;28;20142;-69
2022/03/08 12:12:52;;;;;;;50.97;28.83;;;;;;;;;;4970537;28;20033;-69
2022/03/08 12:15:17;;;;;;;43.10;23.15;;;;;;;;;;4970165;28;20394;-70
2022/03/08 12:18:03;;;;;;;109.00;47.92;;;;;;;;;;4971491;28;20089;-68
2022/03/08 12:20:28;;;;;;;43.13;24.23;;;;;;;;;;4966216;28;20169;-68
2022/03/08 12:23:06;;;;;;;40.28;24.13;;;;;;;;;;4970772;28;20470;-70
2022/03/08 12:25:32;;;;;;;38.60;21.02;;;;;;;;;;4971377;28;20587;-69
2022/03/08 12:27:59;;;;;;;35.55;19.90;;;;;;;;;;4967989;28;20030;-69
2022/03/08 12:30:41;;;;;;;36.28;21.92;;;;;;;;;;4969797;28;20011;-70
2022/03/08 12:33:06;;;;;;;44.50;27.30;;;;;;;;;;4967420;28;20027;-69
2022/03/08 12:35:32;;;;;;;39.17;22.30;;;;;;;;;;4970864;28;20041;-68
2022/03/08 12:37:59;;;;;;;32.40;20.02;;;;;;;;;;4971099;28;20061;-71
2022/03/08 12:40:30;;;;;;;40.97;25.10;;;;;;;;;;4968611;28;20859;-68
2022/03/08 12:42:58;;;;;;;46.55;24.90;;;;;;;;;;4970816;28;20022;-69
2022/03/08 12:45:23;;;;;;;36.55;21.73;;;;;;;;;;4969131;28;20026;-70
2022/03/08 12:47:48;;;;;;;40.80;23.77;;;;;;;;;;4971577;28;20080;-70
2022/03/08 12:50:15;;;;;;;53.53;29.33;;;;;;;;;;4969929;28;20042;-69
2022/03/08 12:52:45;;;;;;;54.53;33.92;;;;;;;;;;4967225;28;20085;-71
2022/03/08 12:55:16;;;;;;;69.18;37.63;;;;;;;;;;4969729;28;20022;-68
2022/03/08 12:57:46;;;;;;;49.92;27.63;;;;;;;;;;4971216;28;20073;-69
2022/03/08 13:00:12;;;;;;;58.97;33.20;;;;;;;;;;4969571;28;20046;-70
2022/03/08 13:02:37;;;;;;;65.85;34.65;;;;;;;;;;4953213;28;20050;-68
2022/03/08 13:05:05;;;;;;;52.10;28.88;;;;;;;;;;4969990;28;20417;-69
2022/03/08 13:07:30;;;;;;;59.53;33.60;;;;;;;;;;4968765;28;20446;-68
2022/03/08 13:09:57;;;;;;;47.13;28.27;;;;;;;;;;4969074;28;20039;-70
2022/03/08 13:12:23;;;;;;;51.88;30.58;;;;;;;;;;4974344;28;20087;-69
2022/03/08 13:15:08;;;;;;;54.97;31.98;;;;;;;;;;4981116;28;20190;-72
2022/03/08 13:17:34;;;;;;;52.35;29.65;;;;;;;;;;4977212;28;20022;-69
2022/03/08 13:19:59;;;;;;;43.35;24.60;;;;;;;;;;4979555;28;20022;-70
2022/03/08 13:22:24;;;;;;;54.45;30.17;;;;;;;;;;4980261;28;20074;-70
2022/03/08 13:25:09;;;;;;;47.20;25.90;;;;;;;;;;4978171;28;20037;-70
2022/03/08 13:27:49;;;;;;;44.00;25.40;;;;;;;;;;4977653;28;20712;-69
2022/03/08 13:30:25;;;;;;;64.30;34.70;;;;;;;;;;4987056;28;20018;-69
2022/03/08 13:33:09;;;;;;;90.38;47.47;;;;;;;;;;4983174;28;20118;-69
2022/03/08 13:35:35;;;;;;;63.38;33.53;;;;;;;;;;4983790;28;20026;-69
2022/03/08 13:38:01;;;;;;;48.50;27.98;;;;;;;;;;4981207;28;20053;-69
2022/03/08 13:40:27;;;;;;;55.70;30.45;;;;;;;;;;4985334;28;20057;-69
2022/03/08 13:42:55;;;;;;;52.95;28.38;;;;;;;;;;4982822;28;20026;-69
2022/03/08 13:45:21;;;;;;;50.50;28.92;;;;;;;;;;4983506;28;20026;-69
2022/03/08 13:47:51;;;;;;;71.45;38.28;;;;;;;;;;4986377;28;20089;-69
2022/03/08 13:50:17;;;;;;;53.65;29.17;;;;;;;;;;4986359;28;20113;-70
2022/03/08 13:52:55;;;;;;;59.22;32.50;;;;;;;;;;4986556;28;20413;-70
2022/03/08 13:55:26;;;;;;;54.23;30.43;;;;;;;;;;4986831;28;20398;-69
2022/03/08 13:57:52;;;;;;;42.88;27.20;;;;;;;;;;4986840;28;20128;-69
2022/03/08 14:00:17;;;;;;;40.60;24.65;;;;;;;;;;4981002;28;20056;-69
2022/03/08 14:02:43;;;;;;;37.85;22.60;;;;;;;;;;4983362;28;20112;-68
2022/03/08 14:05:09;;;;;;;49.35;29.83;;;;;;;;;;4980066;28;20023;-69
2022/03/08 14:07:34;;;;;;;36.65;23.02;;;;;;;;;;4984181;28;20026;-71
2022/03/08 14:10:00;;;;;;;29.42;18.23;;;;;;;;;;4984902;28;20109;-69
2022/03/08 14:12:25;;;;;;;40.67;25.98;;;;;;;;;;4984070;28;20354;-68
2022/03/08 14:15:01;;;;;;;36.35;22.35;;;;;;;;;;4984503;28;20030;-69
2022/03/08 14:17:30;;;;;;;47.67;30.17;;;;;;;;;;4984479;28;20022;-69
2022/03/08 14:19:55;;;;;;;42.30;25.85;;;;;;;;;;4986491;28;20034;-69
2022/03/08 14:22:21;;;;;;;45.67;27.85;;;;;;;;;;4986195;28;20431;-68
2022/03/08 14:24:59;;;;;;;68.53;37.58;;;;;;;;;;4986181;28;20121;-69
2022/03/08 14:27:24;;;;;;;80.22;40.25;;;;;;;;;;4986130;28;20018;-68
2022/03/08 14:30:04;;;;;;;69.28;37.92;;;;;;;;;;4986448;28;20030;-69
2022/03/08 14:32:33;;;;;;;57.25;32.45;;;;;;;;;;4985881;28;20038;-69
2022/03/08 14:35:19;;;;;;;51.90;29.15;;;;;;;;;;4986105;28;20408;-67
2022/03/08 14:37:45;;;;;;;52.15;29.48;;;;;;;;;;4986545;28;20069;-68
2022/03/08 14:40:11;;;;;;;58.20;35.90;;;;;;;;;;4985951;28;20177;-68
2022/03/08 14:42:37;;;;;;;50.00;31.20;;;;;;;;;;4985960;28;20023;-69
2022/03/08 14:45:07;;;;;;;39.20;25.08;;;;;;;;;;4985953;28;20030;-71
2022/03/08 14:47:33;;;;;;;39.45;26.45;;;;;;;;;;4968361;28;20052;-69
2022/03/08 14:50:00;;;;;;;37.97;22.42;;;;;;;;;;4973550;28;20026;-71
2022/03/08 14:52:25;;;;;;;33.10;21.30;;;;;;;;;;4981839;28;20026;-72
2022/03/08 14:54:52;;;;;;;42.00;25.02;;;;;;;;;;4986396;28;20025;-72
2022/03/08 14:57:17;;;;;;;43.67;28.50;;;;;;;;;;4986292;28;20045;-72
2022/03/08 14:59:42;;;;;;;42.55;25.52;;;;;;;;;;4983242;28;20027;-73
2022/03/08 15:02:08;;;;;;;43.63;28.95;;;;;;;;;;4964445;28;20357;-73
2022/03/08 15:04:33;;;;;;;35.78;23.65;;;;;;;;;;4966017;28;20094;-73
2022/03/08 15:06:59;;;;;;;41.00;24.92;;;;;;;;;;4965977;28;20358;-70
2022/03/08 15:09:24;;;;;;;35.42;22.70;;;;;;;;;;4964210;28;20031;-74
2022/03/08 15:11:50;;;;;;;43.28;27.65;;;;;;;;;;4970337;28;20132;-72
2022/03/08 15:14:15;;;;;;;40.83;25.67;;;;;;;;;;4965436;28;20058;-71
2022/03/08 15:16:41;;;;;;;43.05;26.30;;;;;;;;;;4967953;28;20069;-71
2022/03/08 15:19:06;;;;;;;54.00;32.72;;;;;;;;;;4966194;28;20026;-71
2022/03/08 15:21:32;;;;;;;51.60;30.90;;;;;;;;;;4965594;28;20037;-72
2022/03/08 15:23:57;;;;;;;54.35;31.70;;;;;;;;;;4968025;28;20017;-72
2022/03/08 15:26:24;;;;;;;47.35;30.58;;;;;;;;;;4964318;28;20345;-71
2022/03/08 15:28:51;;;;;;;54.65;30.17;;;;;;;;;;4967118;28;20030;-72
2022/03/08 15:31:17;;;;;;;63.63;37.78;;;;;;;;;;4970239;28;20038;-68
2022/03/08 15:33:43;;;;;;;94.05;51.72;;;;;;;;;;4966665;28;20092;-71
2022/03/08 15:36:09;;;;;;;42.97;26.23;;;;;;;;;;4977878;28;20023;-71
2022/03/08 15:38:34;;;;;;;62.30;33.38;;;;;;;;;;4980118;28;20113;-71
2022/03/08 15:40:59;;;;;;;58.40;34.42;;;;;;;;;;4971715;28;20030;-69